Time;durP1;ratioP1;P1;durP2;ratioP2;P2;SDS_P1;SDS_P2;PMS_P1;PMS_P2;Temp;Humidity;BMP_temperature;BMP_pressure;BME280_temperature;BME280_humidity;BME280_pressure;Samples;Min_cycle;Max_cycle;Signal;HPM_P1;HPM_P2
2023/09/12 00:00:02;;;;;;;15.18;8.57;;;;;;;;;;5079107;28;20051;-74
2023/09/12 00:02:39;;;;;;;15.57;9.45;;;;;;;;;;5081985;28;20059;-77
2023/09/12 00:05:12;;;;;;;15.00;9.52;;;;;;;;;;5078781;28;20044;-74
2023/09/12 00:07:49;;;;;;;17.67;9.40;;;;;;;;;;5079074;28;20052;-73
2023/09/12 00:10:23;;;;;;;16.23;9.77;;;;;;;;;;5078985;28;20506;-74
2023/09/12 00:13:00;;;;;;;16.95;9.77;;;;;;;;;;5078638;28;20499;-74
2023/09/12 00:15:34;;;;;;;14.30;8.95;;;;;;;;;;5078459;28;20233;-74
2023/09/12 00:18:07;;;;;;;17.23;11.02;;;;;;;;;;5078342;28;20052;-74
2023/09/12 00:20:40;;;;;;;17.88;9.88;;;;;;;;;;5077850;28;20051;-73
2023/09/12 00:23:15;;;;;;;13.70;8.45;;;;;;;;;;5078052;28;20442;-74
2023/09/12 00:25:52;;;;;;;15.35;9.07;;;;;;;;;;5081714;28;20507;-72
2023/09/12 00:28:28;;;;;;;13.50;9.35;;;;;;;;;;5082001;28;20051;-74
2023/09/12 00:31:03;;;;;;;14.73;8.77;;;;;;;;;;5081276;28;20051;-74
2023/09/12 00:33:38;;;;;;;18.10;9.85;;;;;;;;;;5082085;28;20048;-74
2023/09/12 00:36:16;;;;;;;13.85;9.55;;;;;;;;;;5082267;28;20510;-74
2023/09/12 00:38:49;;;;;;;16.27;8.95;;;;;;;;;;5081895;28;20044;-74
2023/09/12 00:41:31;;;;;;;16.48;9.70;;;;;;;;;;5081372;28;20044;-74
2023/09/12 00:44:11;;;;;;;18.10;9.30;;;;;;;;;;5081546;28;20048;-73
2023/09/12 00:46:49;;;;;;;15.70;9.63;;;;;;;;;;5081856;28;20040;-73
2023/09/12 00:49:22;;;;;;;16.30;8.95;;;;;;;;;;5081025;28;20056;-74
2023/09/12 00:52:01;;;;;;;15.70;8.77;;;;;;;;;;5081082;28;20515;-74
2023/09/12 00:54:39;;;;;;;13.15;9.63;;;;;;;;;;5081257;28;20060;-74
2023/09/12 00:57:22;;;;;;;17.65;10.27;;;;;;;;;;5080948;28;20503;-73
2023/09/12 00:59:58;;;;;;;15.88;10.18;;;;;;;;;;5081722;28;20044;-74
2023/09/12 01:02:34;;;;;;;13.23;9.27;;;;;;;;;;5081545;28;20054;-74
2023/09/12 01:05:09;;;;;;;15.23;8.80;;;;;;;;;;5078681;28;20044;-74
2023/09/12 01:07:46;;;;;;;14.80;8.57;;;;;;;;;;5076733;28;20052;-74
2023/09/12 01:10:26;;;;;;;20.45;9.23;;;;;;;;;;5078246;28;20052;-74
2023/09/12 01:12:59;;;;;;;15.38;9.90;;;;;;;;;;5079941;28;20044;-74
2023/09/12 01:15:32;;;;;;;15.95;9.82;;;;;;;;;;5080627;28;20044;-74
2023/09/12 01:18:06;;;;;;;15.98;10.05;;;;;;;;;;5080435;28;20433;-74
2023/09/12 01:20:52;;;;;;;16.92;9.75;;;;;;;;;;5080643;28;20051;-74
2023/09/12 01:24:01;;;;;;;15.52;10.02;;;;;;;;;;5080688;28;20070;-74
2023/09/12 01:26:54;;;;;;;13.65;9.75;;;;;;;;;;5081363;28;20048;-74
2023/09/12 01:29:27;;;;;;;17.95;9.52;;;;;;;;;;5080102;28;20403;-74
2023/09/12 01:32:06;;;;;;;16.95;9.80;;;;;;;;;;5080079;28;20541;-74
2023/09/12 01:34:40;;;;;;;18.98;10.13;;;;;;;;;;5078032;28;20055;-74
2023/09/12 01:37:19;;;;;;;14.80;9.45;;;;;;;;;;5079737;28;20044;-74
2023/09/12 01:39:53;;;;;;;14.68;9.25;;;;;;;;;;5080620;28;20048;-73
2023/09/12 01:42:39;;;;;;;16.33;9.77;;;;;;;;;;5080831;28;20392;-73
2023/09/12 01:45:13;;;;;;;20.63;10.15;;;;;;;;;;5079108;28;20055;-73
2023/09/12 01:47:48;;;;;;;18.52;11.07;;;;;;;;;;5078650;28;20056;-73
2023/09/12 01:50:25;;;;;;;28.95;10.80;;;;;;;;;;5078463;28;20060;-73
2023/09/12 01:53:05;;;;;;;17.40;9.75;;;;;;;;;;5078417;28;20418;-77
2023/09/12 01:55:37;;;;;;;17.70;9.52;;;;;;;;;;5079745;28;20388;-73
2023/09/12 01:58:10;;;;;;;15.23;10.48;;;;;;;;;;5079892;28;20055;-73
2023/09/12 02:00:43;;;;;;;14.18;9.40;;;;;;;;;;5077979;28;20063;-73
2023/09/12 02:03:17;;;;;;;14.15;9.50;;;;;;;;;;5080562;28;20519;-73
2023/09/12 02:05:50;;;;;;;12.50;8.80;;;;;;;;;;5080329;28;20040;-73
2023/09/12 02:08:22;;;;;;;14.15;9.98;;;;;;;;;;5079439;28;20055;-73
2023/09/12 02:10:53;;;;;;;14.43;9.73;;;;;;;;;;5080625;28;20542;-74
2023/09/12 02:13:24;;;;;;;21.60;10.55;;;;;;;;;;5078687;28;20036;-73
2023/09/12 02:16:02;;;;;;;13.52;8.80;;;;;;;;;;5078190;28;20503;-74
2023/09/12 02:18:34;;;;;;;14.05;9.45;;;;;;;;;;5077199;28;20067;-74
2023/09/12 02:21:07;;;;;;;13.68;9.25;;;;;;;;;;5080097;28;20048;-75
2023/09/12 02:23:41;;;;;;;17.73;9.45;;;;;;;;;;5079048;28;20349;-74
2023/09/12 02:26:17;;;;;;;13.30;5.80;;;;;;;;;;5078925;28;20056;-74
2023/09/12 02:28:48;;;;;;;11.27;4.60;;;;;;;;;;5077483;28;20110;-73
2023/09/12 02:31:20;;;;;;;13.57;3.67;;;;;;;;;;5078592;28;20062;-72
2023/09/12 02:33:54;;;;;;;7.32;2.72;;;;;;;;;;5076992;28;20407;-72
2023/09/12 02:36:29;;;;;;;5.68;2.28;;;;;;;;;;5079778;28;20040;-74
2023/09/12 02:39:00;;;;;;;12.07;2.35;;;;;;;;;;5079797;28;20055;-73
2023/09/12 02:41:34;;;;;;;3.55;1.83;;;;;;;;;;5079526;28;20051;-73
2023/09/12 02:44:06;;;;;;;4.95;1.50;;;;;;;;;;5079370;28;20044;-74
2023/09/12 02:46:39;;;;;;;3.42;1.17;;;;;;;;;;5076660;28;20067;-74
2023/09/12 02:49:10;;;;;;;4.47;1.60;;;;;;;;;;5061545;28;20055;-73
2023/09/12 02:51:41;;;;;;;1.77;1.00;;;;;;;;;;5079335;28;20051;-73
2023/09/12 02:54:14;;;;;;;4.40;1.30;;;;;;;;;;5079782;28;20044;-73
2023/09/12 02:56:46;;;;;;;2.03;1.20;;;;;;;;;;5079221;28;20060;-74
2023/09/12 02:59:17;;;;;;;3.25;1.20;;;;;;;;;;5079235;28;20048;-73
2023/09/12 03:01:48;;;;;;;1.98;1.30;;;;;;;;;;5077732;28;20055;-74
2023/09/12 03:04:21;;;;;;;4.40;0.80;;;;;;;;;;5079517;28;20032;-74
2023/09/12 03:06:52;;;;;;;2.72;1.10;;;;;;;;;;5079401;28;20044;-73
2023/09/12 03:09:25;;;;;;;1.55;1.10;;;;;;;;;;5076499;28;20048;-73
2023/09/12 03:11:56;;;;;;;3.00;1.30;;;;;;;;;;5079380;28;20055;-73
2023/09/12 03:14:29;;;;;;;4.88;1.08;;;;;;;;;;5077265;28;20091;-73
2023/09/12 03:17:00;;;;;;;3.80;1.50;;;;;;;;;;5078987;28;20040;-74
2023/09/12 03:19:33;;;;;;;4.72;1.42;;;;;;;;;;5077151;28;20052;-73
2023/09/12 03:22:04;;;;;;;3.03;1.20;;;;;;;;;;5079129;28;20050;-74
2023/09/12 03:24:36;;;;;;;2.58;1.20;;;;;;;;;;5079599;28;20088;-74
2023/09/12 03:27:08;;;;;;;3.15;1.20;;;;;;;;;;5077769;28;20056;-73
2023/09/12 03:29:39;;;;;;;2.85;1.33;;;;;;;;;;5078867;28;20059;-74
2023/09/12 03:32:10;;;;;;;4.65;1.30;;;;;;;;;;5077559;28;20059;-73
2023/09/12 03:34:41;;;;;;;2.75;0.98;;;;;;;;;;5078966;28;20406;-73
2023/09/12 03:37:12;;;;;;;5.18;1.30;;;;;;;;;;5079222;28;20044;-73
2023/09/12 03:39:44;;;;;;;2.92;1.42;;;;;;;;;;5060557;28;20048;-73
2023/09/12 03:42:14;;;;;;;2.75;1.13;;;;;;;;;;5078804;28;20460;-73
2023/09/12 03:44:50;;;;;;;4.95;1.58;;;;;;;;;;5076104;28;20052;-74
2023/09/12 03:47:22;;;;;;;2.50;1.35;;;;;;;;;;5076964;28;20056;-74
2023/09/12 03:49:53;;;;;;;4.57;1.20;;;;;;;;;;5077286;28;20419;-73
2023/09/12 03:52:23;;;;;;;4.07;1.30;;;;;;;;;;5077406;28;20052;-73
2023/09/12 03:54:56;;;;;;;6.22;1.10;;;;;;;;;;5077884;28;20541;-73
2023/09/12 03:57:27;;;;;;;2.83;1.38;;;;;;;;;;5076616;28;20047;-73
2023/09/12 03:59:58;;;;;;;4.40;1.25;;;;;;;;;;5082033;28;20410;-73
2023/09/12 04:02:30;;;;;;;2.65;1.40;;;;;;;;;;5080360;28;20534;-72
2023/09/12 04:05:02;;;;;;;1.95;1.13;;;;;;;;;;5081942;28;20070;-73
2023/09/12 04:07:32;;;;;;;4.75;1.30;;;;;;;;;;5082017;28;20052;-73
2023/09/12 04:10:05;;;;;;;2.20;0.80;;;;;;;;;;5081876;28;20050;-75
2023/09/12 04:12:35;;;;;;;2.63;1.10;;;;;;;;;;5080420;28;20499;-73
2023/09/12 04:15:07;;;;;;;4.80;1.40;;;;;;;;;;5081998;28;20047;-73
2023/09/12 04:17:38;;;;;;;2.35;0.93;;;;;;;;;;5079570;28;20390;-74
2023/09/12 04:20:13;;;;;;;2.60;1.17;;;;;;;;;;5079785;28;20418;-73
2023/09/12 04:22:44;;;;;;;3.83;1.25;;;;;;;;;;5080272;28;20059;-73
2023/09/12 04:25:19;;;;;;;3.47;1.42;;;;;;;;;;5079817;28;20060;-73
2023/09/12 04:27:51;;;;;;;5.35;1.35;;;;;;;;;;5082282;28;20417;-73
2023/09/12 04:30:23;;;;;;;7.18;1.17;;;;;;;;;;5081771;28;20406;-73
2023/09/12 04:32:55;;;;;;;6.53;1.75;;;;;;;;;;5079159;28;20059;-73
2023/09/12 04:35:26;;;;;;;4.57;1.42;;;;;;;;;;5080232;28;20060;-73
2023/09/12 04:37:57;;;;;;;4.20;1.50;;;;;;;;;;5080010;28;20076;-73
2023/09/12 04:40:29;;;;;;;4.53;1.10;;;;;;;;;;5080018;28;20656;-73
2023/09/12 04:43:01;;;;;;;3.88;1.27;;;;;;;;;;5079408;28;20445;-73
2023/09/12 04:45:35;;;;;;;3.50;1.33;;;;;;;;;;5078824;28;20515;-73
2023/09/12 04:48:06;;;;;;;3.47;1.20;;;;;;;;;;5079848;28;20063;-73
2023/09/12 04:50:44;;;;;;;5.13;1.48;;;;;;;;;;5079717;28;20503;-73
2023/09/12 04:53:15;;;;;;;3.65;1.25;;;;;;;;;;5079382;28;20527;-73
2023/09/12 04:55:47;;;;;;;6.70;1.17;;;;;;;;;;5079483;28;20924;-73
2023/09/12 04:58:19;;;;;;;4.22;1.40;;;;;;;;;;5079951;28;20736;-73
2023/09/12 05:00:50;;;;;;;4.60;1.30;;;;;;;;;;5081584;28;20509;-73
2023/09/12 05:03:20;;;;;;;2.30;1.10;;;;;;;;;;5079124;28;20047;-73
2023/09/12 05:05:52;;;;;;;3.08;1.15;;;;;;;;;;5078741;28;20138;-73
2023/09/12 05:08:24;;;;;;;3.90;1.23;;;;;;;;;;5080393;28;20079;-74
2023/09/12 05:10:56;;;;;;;2.58;1.17;;;;;;;;;;5081422;28;20607;-73
2023/09/12 05:13:26;;;;;;;9.00;1.58;;;;;;;;;;5079344;28;20056;-72
2023/09/12 05:15:58;;;;;;;5.38;1.42;;;;;;;;;;5079725;28;20056;-73
2023/09/12 05:18:30;;;;;;;4.30;1.52;;;;;;;;;;5078853;28;20063;-72
2023/09/12 05:21:01;;;;;;;6.05;1.55;;;;;;;;;;5079269;28;20044;-73
2023/09/12 05:23:32;;;;;;;3.15;0.93;;;;;;;;;;5078874;28;20060;-73
2023/09/12 05:26:04;;;;;;;2.47;1.30;;;;;;;;;;5077828;28;20059;-73
2023/09/12 05:28:35;;;;;;;6.28;2.13;;;;;;;;;;5080970;28;20499;-73
2023/09/12 05:31:07;;;;;;;3.55;1.33;;;;;;;;;;5078692;28;20056;-73
2023/09/12 05:33:38;;;;;;;4.38;1.40;;;;;;;;;;5078205;28;20055;-73
2023/09/12 05:36:10;;;;;;;4.25;1.52;;;;;;;;;;5079448;28;20048;-72
2023/09/12 05:38:41;;;;;;;11.63;1.70;;;;;;;;;;5078706;28;20608;-73
2023/09/12 05:41:13;;;;;;;14.65;2.92;;;;;;;;;;5080632;28;20054;-72
2023/09/12 05:43:43;;;;;;;4.65;1.70;;;;;;;;;;5062306;28;20055;-74
2023/09/12 05:46:17;;;;;;;4.43;1.98;;;;;;;;;;5080826;28;20044;-75
2023/09/12 05:48:49;;;;;;;8.27;1.60;;;;;;;;;;5078814;28;20410;-73
2023/09/12 05:51:21;;;;;;;3.40;1.23;;;;;;;;;;5079696;28;20908;-73
2023/09/12 05:53:52;;;;;;;5.47;1.83;;;;;;;;;;5077961;28;20059;-73
2023/09/12 05:56:24;;;;;;;4.75;1.30;;;;;;;;;;5078052;28;20067;-74
2023/09/12 05:58:56;;;;;;;5.38;1.58;;;;;;;;;;5079706;28;20054;-72
2023/09/12 06:01:27;;;;;;;5.25;1.40;;;;;;;;;;5078288;28;20060;-72
2023/09/12 06:03:58;;;;;;;5.47;2.00;;;;;;;;;;5080147;28;20055;-74
2023/09/12 06:06:30;;;;;;;4.75;1.67;;;;;;;;;;5077810;28;20400;-73
2023/09/12 06:09:02;;;;;;;4.00;1.45;;;;;;;;;;5080174;28;20055;-74
2023/09/12 06:11:32;;;;;;;4.68;1.85;;;;;;;;;;5080378;28;20857;-73
2023/09/12 06:14:03;;;;;;;5.05;1.40;;;;;;;;;;5079831;28;20059;-74
2023/09/12 06:16:34;;;;;;;4.82;1.55;;;;;;;;;;5077192;28;20570;-73
2023/09/12 06:19:06;;;;;;;4.65;1.42;;;;;;;;;;5079622;28;20047;-74
2023/09/12 06:21:37;;;;;;;6.43;1.98;;;;;;;;;;5079674;28;20070;-73
2023/09/12 06:24:11;;;;;;;4.85;1.83;;;;;;;;;;5080404;28;20052;-75
2023/09/12 06:26:43;;;;;;;3.65;1.40;;;;;;;;;;5080113;28;20048;-73
2023/09/12 06:29:15;;;;;;;5.68;1.73;;;;;;;;;;5079612;28;20059;-73
2023/09/12 06:31:47;;;;;;;4.25;1.65;;;;;;;;;;5079514;28;20054;-74
2023/09/12 06:34:17;;;;;;;5.03;1.80;;;;;;;;;;5079339;28;20424;-72
2023/09/12 06:36:48;;;;;;;4.25;1.40;;;;;;;;;;5079703;28;20044;-73
2023/09/12 06:39:20;;;;;;;5.28;1.80;;;;;;;;;;5079747;28;20746;-74
2023/09/12 06:41:51;;;;;;;3.67;1.60;;;;;;;;;;5079302;28;20047;-73
2023/09/12 06:44:24;;;;;;;3.70;1.30;;;;;;;;;;5077966;28;20417;-72
2023/09/12 06:46:56;;;;;;;4.90;1.20;;;;;;;;;;5078594;28;20072;-74
2023/09/12 06:49:27;;;;;;;5.60;1.98;;;;;;;;;;5079720;28;20070;-73
2023/09/12 06:51:57;;;;;;;4.15;1.63;;;;;;;;;;5078728;28;20063;-74
2023/09/12 06:54:28;;;;;;;5.68;1.90;;;;;;;;;;5079018;28;20044;-75
2023/09/12 06:57:05;;;;;;;6.28;1.85;;;;;;;;;;5079414;28;20549;-73
2023/09/12 06:59:37;;;;;;;3.90;1.80;;;;;;;;;;5079539;28;20044;-75
2023/09/12 07:02:09;;;;;;;5.07;1.67;;;;;;;;;;5079050;28;20044;-75
2023/09/12 07:04:40;;;;;;;6.70;1.90;;;;;;;;;;5078847;28;20581;-73
2023/09/12 07:07:12;;;;;;;4.45;1.60;;;;;;;;;;5079081;28;20368;-74
2023/09/12 07:09:43;;;;;;;4.75;1.90;;;;;;;;;;5079326;28;20499;-73
2023/09/12 07:12:13;;;;;;;3.33;1.60;;;;;;;;;;5079109;28;20044;-73
2023/09/12 07:14:44;;;;;;;7.10;1.50;;;;;;;;;;5079190;28;20411;-74
2023/09/12 07:17:15;;;;;;;3.15;1.25;;;;;;;;;;5078239;28;20043;-74
2023/09/12 07:19:47;;;;;;;5.55;2.13;;;;;;;;;;5079540;28;20654;-74
2023/09/12 07:22:18;;;;;;;4.72;2.20;;;;;;;;;;5078998;28;20040;-72
2023/09/12 07:24:48;;;;;;;3.97;2.08;;;;;;;;;;5078737;28;20542;-74
2023/09/12 07:27:20;;;;;;;5.95;1.70;;;;;;;;;;5079063;28;20043;-74
2023/09/12 07:29:51;;;;;;;7.43;1.67;;;;;;;;;;5078755;28;20059;-72
2023/09/12 07:32:24;;;;;;;4.05;1.88;;;;;;;;;;5078966;28;20051;-73
2023/09/12 07:34:55;;;;;;;5.15;1.80;;;;;;;;;;5082975;28;20601;-74
2023/09/12 07:37:27;;;;;;;4.43;1.80;;;;;;;;;;5083534;28;20051;-73
2023/09/12 07:40:00;;;;;;;6.85;1.90;;;;;;;;;;5083360;28;20052;-74
2023/09/12 07:42:31;;;;;;;6.07;1.60;;;;;;;;;;5082952;28;20453;-73
2023/09/12 07:45:03;;;;;;;12.05;2.15;;;;;;;;;;5083746;28;20044;-73
2023/09/12 07:47:38;;;;;;;5.40;1.80;;;;;;;;;;5083183;28;20518;-73
2023/09/12 07:50:09;;;;;;;4.65;1.80;;;;;;;;;;5082670;28;20051;-74
2023/09/12 07:52:40;;;;;;;6.03;1.88;;;;;;;;;;5082118;28;20051;-74
2023/09/12 07:55:11;;;;;;;5.70;2.20;;;;;;;;;;5082495;28;20578;-74
2023/09/12 07:57:43;;;;;;;7.05;2.20;;;;;;;;;;5082191;28;20063;-74
2023/09/12 08:00:14;;;;;;;3.65;2.17;;;;;;;;;;5082792;28;20712;-74
2023/09/12 08:02:46;;;;;;;5.72;2.00;;;;;;;;;;5082253;28;20582;-73
2023/09/12 08:05:18;;;;;;;4.82;1.90;;;;;;;;;;5081970;28;20044;-74
2023/09/12 08:07:50;;;;;;;4.72;1.95;;;;;;;;;;5082510;28;20050;-74
2023/09/12 08:10:22;;;;;;;5.65;2.30;;;;;;;;;;5082393;28;20055;-75
2023/09/12 08:12:53;;;;;;;3.92;2.05;;;;;;;;;;5082040;28;20058;-72
2023/09/12 08:15:23;;;;;;;11.52;2.13;;;;;;;;;;5081963;28;20048;-73
2023/09/12 08:17:55;;;;;;;3.60;1.90;;;;;;;;;;5081974;28;20399;-74
2023/09/12 08:20:27;;;;;;;4.40;2.00;;;;;;;;;;5082208;28;20047;-74
2023/09/12 08:22:58;;;;;;;4.65;1.73;;;;;;;;;;5081476;28;20052;-73
2023/09/12 08:25:29;;;;;;;4.35;1.85;;;;;;;;;;5081832;28;20550;-74
2023/09/12 08:28:00;;;;;;;4.30;2.00;;;;;;;;;;5082015;28;20550;-74
2023/09/12 08:30:33;;;;;;;4.45;1.73;;;;;;;;;;5082386;28;20743;-73
2023/09/12 08:33:06;;;;;;;2.47;1.60;;;;;;;;;;5082036;28;20083;-74
2023/09/12 08:35:37;;;;;;;6.13;2.00;;;;;;;;;;5082060;28;20052;-74
2023/09/12 08:38:09;;;;;;;6.90;1.90;;;;;;;;;;5082419;28;20102;-73
2023/09/12 08:40:41;;;;;;;5.63;2.03;;;;;;;;;;5080805;28;20837;-73
2023/09/12 08:43:16;;;;;;;4.25;1.70;;;;;;;;;;5080056;28;20422;-74
2023/09/12 08:45:47;;;;;;;7.35;1.83;;;;;;;;;;5081334;28;20411;-73
2023/09/12 08:48:25;;;;;;;4.22;2.10;;;;;;;;;;5081515;28;20056;-74
2023/09/12 08:50:57;;;;;;;5.00;2.25;;;;;;;;;;5082288;28;20058;-74
2023/09/12 08:53:27;;;;;;;9.07;1.95;;;;;;;;;;5081948;28;20044;-72
2023/09/12 08:55:59;;;;;;;4.15;1.90;;;;;;;;;;5079841;28;20533;-73
2023/09/12 08:58:33;;;;;;;3.72;2.20;;;;;;;;;;5081661;28;20590;-72
2023/09/12 09:01:10;;;;;;;4.35;1.90;;;;;;;;;;5082247;28;20503;-75
2023/09/12 09:03:44;;;;;;;5.85;1.92;;;;;;;;;;5081694;28;20048;-76
2023/09/12 09:06:16;;;;;;;4.50;1.83;;;;;;;;;;5081614;28;20074;-72
2023/09/12 09:08:49;;;;;;;4.88;1.67;;;;;;;;;;5082111;28;20403;-74
2023/09/12 09:11:20;;;;;;;6.13;1.75;;;;;;;;;;5081904;28;20055;-72
2023/09/12 09:13:50;;;;;;;4.40;1.90;;;;;;;;;;5081208;28;20056;-72
2023/09/12 09:16:23;;;;;;;5.28;1.60;;;;;;;;;;5081296;28;20040;-73
2023/09/12 09:19:02;;;;;;;8.13;2.10;;;;;;;;;;5081346;28;20047;-73
2023/09/12 09:21:34;;;;;;;8.55;1.95;;;;;;;;;;5081532;28;20047;-74
2023/09/12 09:24:10;;;;;;;5.88;1.60;;;;;;;;;;5081295;28;20402;-74
2023/09/12 09:26:58;;;;;;;6.20;1.73;;;;;;;;;;5080477;28;20311;-74
2023/09/12 09:29:33;;;;;;;7.35;2.40;;;;;;;;;;5081287;28;20048;-73
2023/09/12 09:32:21;;;;;;;7.05;1.83;;;;;;;;;;5080600;28;20044;-74
2023/09/12 09:34:53;;;;;;;11.05;2.30;;;;;;;;;;5080334;28;20048;-73
2023/09/12 09:37:24;;;;;;;7.47;1.70;;;;;;;;;;5081146;28;20760;-73
2023/09/12 09:39:56;;;;;;;6.72;2.45;;;;;;;;;;5080811;28;20051;-74
2023/09/12 09:42:29;;;;;;;4.10;1.88;;;;;;;;;;5079192;28;20427;-74
2023/09/12 09:45:01;;;;;;;5.10;2.08;;;;;;;;;;5080430;28;20043;-74
2023/09/12 09:47:32;;;;;;;9.55;2.25;;;;;;;;;;5080469;28;20040;-72
2023/09/12 09:50:05;;;;;;;8.88;2.25;;;;;;;;;;5080578;28;20044;-74
2023/09/12 09:52:36;;;;;;;4.65;1.92;;;;;;;;;;5080800;28;20044;-74
2023/09/12 09:55:07;;;;;;;6.05;2.13;;;;;;;;;;5080677;28;20478;-75
2023/09/12 09:57:38;;;;;;;3.17;1.60;;;;;;;;;;5079678;28;20048;-73
2023/09/12 10:00:14;;;;;;;3.88;1.67;;;;;;;;;;5080527;28;20573;-73
2023/09/12 10:02:48;;;;;;;5.90;1.92;;;;;;;;;;5079860;28;20525;-74
2023/09/12 10:05:20;;;;;;;10.82;2.45;;;;;;;;;;5080766;28;20048;-73
2023/09/12 10:07:54;;;;;;;4.15;1.80;;;;;;;;;;5079980;28;20062;-74
2023/09/12 10:10:29;;;;;;;5.15;1.77;;;;;;;;;;5080182;28;20607;-74
2023/09/12 10:13:04;;;;;;;4.70;1.58;;;;;;;;;;5080323;28;20521;-77
2023/09/12 10:15:39;;;;;;;7.25;1.70;;;;;;;;;;5079718;28;20044;-73
2023/09/12 10:18:12;;;;;;;3.63;1.80;;;;;;;;;;5080150;28;20050;-76
2023/09/12 10:21:05;;;;;;;4.30;1.80;;;;;;;;;;5080415;28;21116;-73
2023/09/12 10:23:44;;;;;;;13.45;2.03;;;;;;;;;;5080493;28;20056;-73
2023/09/12 10:26:15;;;;;;;13.45;2.35;;;;;;;;;;5079491;28;20461;-74
2023/09/12 10:28:49;;;;;;;6.30;2.00;;;;;;;;;;5079720;28;20048;-75
2023/09/12 10:31:21;;;;;;;6.32;1.73;;;;;;;;;;5079346;28;20071;-75
2023/09/12 10:33:53;;;;;;;6.47;1.92;;;;;;;;;;5079442;28;20051;-73
2023/09/12 10:36:27;;;;;;;9.80;2.03;;;;;;;;;;5079292;28;20054;-74
2023/09/12 10:39:00;;;;;;;14.52;2.83;;;;;;;;;;5079198;28;20059;-75
2023/09/12 10:41:33;;;;;;;6.13;1.70;;;;;;;;;;5079234;28;20383;-74
2023/09/12 10:44:12;;;;;;;4.70;1.70;;;;;;;;;;5079217;28;20067;-75
2023/09/12 10:46:46;;;;;;;14.38;2.40;;;;;;;;;;5079489;28;20406;-72
2023/09/12 10:49:18;;;;;;;10.68;3.33;;;;;;;;;;5079967;28;20433;-75
2023/09/12 10:51:51;;;;;;;8.57;3.15;;;;;;;;;;5078851;28;20051;-74
2023/09/12 10:54:39;;;;;;;9.10;2.50;;;;;;;;;;5079717;28;20052;-74
2023/09/12 10:57:16;;;;;;;12.40;3.05;;;;;;;;;;5078973;28;20044;-74
2023/09/12 11:00:04;;;;;;;16.77;4.72;;;;;;;;;;5079359;28;20044;-73
2023/09/12 11:02:37;;;;;;;8.80;3.30;;;;;;;;;;5079214;28;20047;-74
2023/09/12 11:05:31;;;;;;;13.05;2.15;;;;;;;;;;5079209;28;20051;-72
2023/09/12 11:08:05;;;;;;;7.05;2.30;;;;;;;;;;5069941;28;20052;-74
2023/09/12 11:10:36;;;;;;;6.13;1.90;;;;;;;;;;5078512;28;20048;-73
2023/09/12 11:13:18;;;;;;;5.10;2.85;;;;;;;;;;5079133;28;20044;-74
2023/09/12 11:16:17;;;;;;;7.15;2.38;;;;;;;;;;5077546;28;20059;-74
2023/09/12 11:19:23;;;;;;;4.93;1.67;;;;;;;;;;5079641;28;20044;-75
2023/09/12 11:21:57;;;;;;;7.00;2.13;;;;;;;;;;5078479;28;20411;-74
2023/09/12 11:24:29;;;;;;;5.57;1.85;;;;;;;;;;5079552;28;20060;-73
2023/09/12 11:27:08;;;;;;;13.90;2.22;;;;;;;;;;5079152;28;20048;-74
2023/09/12 11:29:40;;;;;;;4.80;1.58;;;;;;;;;;5079640;28;20412;-73
2023/09/12 11:32:31;;;;;;;5.20;1.80;;;;;;;;;;5079163;28;20060;-76
2023/09/12 11:35:08;;;;;;;7.18;1.60;;;;;;;;;;5079429;28;20063;-73
2023/09/12 11:37:49;;;;;;;4.43;1.80;;;;;;;;;;5077416;28;20055;-78
2023/09/12 11:40:43;;;;;;;5.93;1.40;;;;;;;;;;5076275;28;20406;-73
2023/09/12 11:43:25;;;;;;;8.02;2.10;;;;;;;;;;5077824;28;20040;-74
2023/09/12 11:45:58;;;;;;;10.23;2.10;;;;;;;;;;5078587;28;20062;-74
2023/09/12 11:48:30;;;;;;;3.33;1.80;;;;;;;;;;5079466;28;20044;-73
2023/09/12 11:51:01;;;;;;;4.20;2.08;;;;;;;;;;5079143;28;20048;-73
2023/09/12 11:53:35;;;;;;;4.95;2.15;;;;;;;;;;5078694;28;20040;-74
2023/09/12 11:56:07;;;;;;;6.82;1.95;;;;;;;;;;5077085;28;20541;-74
2023/09/12 11:58:39;;;;;;;6.95;2.00;;;;;;;;;;5078306;28;20051;-75
2023/09/12 12:01:13;;;;;;;5.18;1.80;;;;;;;;;;5079043;28;20055;-73
2023/09/12 12:03:44;;;;;;;7.70;2.10;;;;;;;;;;5078794;28;20505;-74
2023/09/12 12:06:16;;;;;;;5.32;1.52;;;;;;;;;;5078643;28;20521;-76
2023/09/12 12:08:47;;;;;;;6.38;1.50;;;;;;;;;;5078189;28;20054;-74
2023/09/12 12:11:19;;;;;;;5.55;1.70;;;;;;;;;;5078507;28;20051;-74
2023/09/12 12:13:51;;;;;;;4.47;1.90;;;;;;;;;;5078463;28;20695;-75
2023/09/12 12:16:23;;;;;;;8.48;2.35;;;;;;;;;;5078423;28;20056;-73
2023/09/12 12:18:57;;;;;;;8.20;1.85;;;;;;;;;;5077549;28;20050;-73
2023/09/12 12:21:28;;;;;;;4.88;1.52;;;;;;;;;;5082067;28;20510;-73
2023/09/12 12:24:00;;;;;;;6.45;1.85;;;;;;;;;;5081900;28;20059;-74
2023/09/12 12:26:32;;;;;;;5.18;1.83;;;;;;;;;;5082007;28;20052;-74
2023/09/12 12:29:05;;;;;;;6.45;1.95;;;;;;;;;;5082076;28;20479;-77
2023/09/12 12:31:36;;;;;;;5.00;1.63;;;;;;;;;;5082243;28;20048;-75
2023/09/12 12:34:06;;;;;;;6.15;1.80;;;;;;;;;;5081864;28;20063;-73
2023/09/12 12:36:59;;;;;;;9.00;1.90;;;;;;;;;;5082304;28;20044;-74
2023/09/12 12:39:32;;;;;;;4.75;1.85;;;;;;;;;;5081802;28;20048;-75
2023/09/12 12:42:03;;;;;;;7.47;1.77;;;;;;;;;;5081697;28;20052;-74
2023/09/12 12:44:36;;;;;;;10.57;2.17;;;;;;;;;;5080463;28;20051;-73
2023/09/12 12:47:11;;;;;;;6.22;1.98;;;;;;;;;;5081810;28;20048;-73
2023/09/12 12:49:43;;;;;;;6.15;1.67;;;;;;;;;;5080448;28;20048;-73
2023/09/12 12:52:14;;;;;;;4.25;1.65;;;;;;;;;;5082042;28;20044;-73
2023/09/12 12:54:45;;;;;;;8.07;2.03;;;;;;;;;;5062917;28;20445;-78
2023/09/12 12:57:20;;;;;;;5.03;1.98;;;;;;;;;;5081763;28;20044;-73
2023/09/12 12:59:54;;;;;;;6.45;1.98;;;;;;;;;;5081619;28;20063;-74
2023/09/12 13:02:24;;;;;;;7.80;2.10;;;;;;;;;;5081604;28;20044;-75
2023/09/12 13:04:55;;;;;;;5.50;2.05;;;;;;;;;;5081768;28;20407;-73
2023/09/12 13:07:27;;;;;;;3.60;1.52;;;;;;;;;;5080459;28;20059;-74
2023/09/12 13:09:58;;;;;;;6.88;2.20;;;;;;;;;;5084744;28;20628;-75
2023/09/12 13:12:29;;;;;;;6.38;2.20;;;;;;;;;;5081514;28;20044;-74
2023/09/12 13:15:00;;;;;;;5.13;1.88;;;;;;;;;;5081199;28;20055;-74
2023/09/12 13:17:32;;;;;;;7.22;2.22;;;;;;;;;;5081163;28;20059;-73
2023/09/12 13:20:03;;;;;;;9.52;2.30;;;;;;;;;;5081545;28;20052;-74
2023/09/12 13:22:35;;;;;;;18.52;2.78;;;;;;;;;;5080979;28;20055;-77
2023/09/12 13:25:07;;;;;;;16.10;2.58;;;;;;;;;;5080730;28;20051;-75
2023/09/12 13:27:39;;;;;;;12.43;2.13;;;;;;;;;;5081085;28;20043;-73
2023/09/12 13:30:10;;;;;;;10.90;3.35;;;;;;;;;;5080391;28;20044;-72
2023/09/12 13:32:41;;;;;;;9.60;2.80;;;;;;;;;;5080529;28;20494;-76
2023/09/12 13:35:12;;;;;;;6.07;2.50;;;;;;;;;;5078478;28;20052;-72
2023/09/12 13:37:46;;;;;;;6.00;2.08;;;;;;;;;;5080780;28;20499;-74
2023/09/12 13:40:17;;;;;;;8.77;2.38;;;;;;;;;;5080602;28;20051;-74
2023/09/12 13:42:48;;;;;;;4.82;2.30;;;;;;;;;;5080705;28;20044;-76
2023/09/12 13:45:19;;;;;;;3.88;2.03;;;;;;;;;;5080350;28;20616;-71
2023/09/12 13:47:51;;;;;;;5.18;2.35;;;;;;;;;;5080140;28;20052;-76
2023/09/12 13:50:23;;;;;;;5.10;2.08;;;;;;;;;;5080628;28;20055;-73
2023/09/12 13:53:07;;;;;;;2.92;2.22;;;;;;;;;;5077717;28;20036;-74
2023/09/12 13:55:38;;;;;;;3.58;1.90;;;;;;;;;;5080457;28;20048;-73
2023/09/12 13:58:30;;;;;;;4.40;1.80;;;;;;;;;;5079940;28;20056;-75
2023/09/12 14:01:14;;;;;;;1.98;1.70;;;;;;;;;;5080655;28;20499;-74
2023/09/12 14:04:02;;;;;;;2.45;1.70;;;;;;;;;;5080620;28;20055;-74
2023/09/12 14:06:37;;;;;;;8.65;2.03;;;;;;;;;;5080484;28;20052;-74
2023/09/12 14:09:10;;;;;;;5.65;2.28;;;;;;;;;;5080330;28;20052;-73
2023/09/12 14:11:41;;;;;;;5.05;2.30;;;;;;;;;;5079774;28;20055;-73
2023/09/12 14:14:14;;;;;;;4.78;2.20;;;;;;;;;;5080328;28;20063;-72
2023/09/12 14:16:46;;;;;;;4.43;2.30;;;;;;;;;;5079778;28;20055;-73
2023/09/12 14:19:19;;;;;;;3.42;2.20;;;;;;;;;;5080316;28;20410;-76
2023/09/12 14:21:51;;;;;;;4.25;2.10;;;;;;;;;;5081235;28;20071;-74
2023/09/12 14:24:23;;;;;;;4.78;1.90;;;;;;;;;;5080639;28;20052;-72
2023/09/12 14:26:54;;;;;;;4.78;1.75;;;;;;;;;;5082302;28;20047;-72
2023/09/12 14:29:29;;;;;;;3.80;2.00;;;;;;;;;;5078338;28;20052;-72
2023/09/12 14:32:01;;;;;;;4.00;1.92;;;;;;;;;;5079854;28;20055;-72
2023/09/12 14:38:45;;;;;;;8.50;2.25;;;;;;;;;;5080841;28;20051;-72
2023/09/12 14:41:16;;;;;;;5.38;2.13;;;;;;;;;;5079556;28;20414;-73
2023/09/12 14:43:49;;;;;;;4.78;1.60;;;;;;;;;;5077962;28;20059;-73
2023/09/12 14:47:06;;;;;;;4.70;1.83;;;;;;;;;;5079688;28;20040;-71
2023/09/12 14:49:47;;;;;;;4.35;1.55;;;;;;;;;;5079017;28;20392;-73
2023/09/12 14:52:21;;;;;;;3.78;1.80;;;;;;;;;;5079559;28;20418;-72
2023/09/12 14:55:01;;;;;;;2.65;2.00;;;;;;;;;;5080229;28;20048;-74
2023/09/12 14:57:32;;;;;;;6.53;2.03;;;;;;;;;;5080706;28;20044;-73
2023/09/12 15:00:06;;;;;;;3.47;1.60;;;;;;;;;;5079191;28;20047;-73
2023/09/12 15:02:37;;;;;;;7.47;1.23;;;;;;;;;;5079689;28;20043;-72
2023/09/12 15:05:10;;;;;;;5.57;1.85;;;;;;;;;;5081527;28;20522;-73
2023/09/12 15:07:41;;;;;;;3.97;1.50;;;;;;;;;;5077828;28;20054;-73
2023/09/12 15:10:12;;;;;;;3.92;1.85;;;;;;;;;;5078887;28;20059;-72
2023/09/12 15:12:44;;;;;;;6.05;1.85;;;;;;;;;;5078662;28;20483;-72
2023/09/12 15:15:15;;;;;;;7.45;1.80;;;;;;;;;;5079366;28;20052;-73
2023/09/12 15:17:46;;;;;;;4.65;1.75;;;;;;;;;;5079397;28;20051;-72
2023/09/12 15:20:17;;;;;;;6.78;1.50;;;;;;;;;;5079160;28;20044;-74
2023/09/12 15:22:49;;;;;;;4.32;1.88;;;;;;;;;;5077259;28;20522;-73